Time;durP1;ratioP1;P1;durP2;ratioP2;P2;SDS_P1;SDS_P2;PMS_P1;PMS_P2;Temp;Humidity;BMP_temperature;BMP_pressure;BME280_temperature;BME280_humidity;BME280_pressure;Samples;Min_cycle;Max_cycle;Signal;HPM_P1;HPM_P2
2022/09/07 00:00:30;;;;;;;10.13;4.70;;;;;;;;;;5049488;28;20238;-46
2022/09/07 00:02:56;;;;;;;5.47;4.33;;;;;;;;;;5047801;28;20804;-46
2022/09/07 00:05:22;;;;;;;5.00;4.57;;;;;;;;;;5048194;28;20202;-47
2022/09/07 00:07:48;;;;;;;5.80;4.73;;;;;;;;;;5049895;28;20697;-48
2022/09/07 00:10:14;;;;;;;5.50;4.93;;;;;;;;;;5050135;28;20198;-51
2022/09/07 00:12:40;;;;;;;5.03;4.63;;;;;;;;;;5049869;28;20206;-48
2022/09/07 00:15:10;;;;;;;6.50;4.73;;;;;;;;;;5049382;28;20202;-47
2022/09/07 00:17:36;;;;;;;4.67;4.37;;;;;;;;;;5049891;28;20212;-48
2022/09/07 00:20:02;;;;;;;5.80;4.53;;;;;;;;;;5047109;28;20206;-46
2022/09/07 00:22:28;;;;;;;7.43;4.90;;;;;;;;;;5048694;28;20358;-48
2022/09/07 00:24:54;;;;;;;5.27;4.77;;;;;;;;;;5051905;28;20248;-47
2022/09/07 00:27:20;;;;;;;5.17;4.20;;;;;;;;;;5053397;28;20202;-46
2022/09/07 00:29:46;;;;;;;5.13;4.73;;;;;;;;;;5053113;28;20553;-46
2022/09/07 00:32:14;;;;;;;4.73;4.33;;;;;;;;;;5052891;28;20198;-46
2022/09/07 00:34:40;;;;;;;5.53;4.90;;;;;;;;;;5053164;28;20211;-46
2022/09/07 00:37:05;;;;;;;6.67;4.87;;;;;;;;;;5053108;28;20206;-48
2022/09/07 00:39:32;;;;;;;5.50;4.90;;;;;;;;;;5051740;28;20195;-46
2022/09/07 00:41:58;;;;;;;5.20;4.70;;;;;;;;;;5052144;28;20313;-46
2022/09/07 00:44:43;;;;;;;6.00;5.00;;;;;;;;;;5052106;28;20294;-47
2022/09/07 00:47:11;;;;;;;6.83;5.10;;;;;;;;;;5052855;28;20273;-46
2022/09/07 00:49:38;;;;;;;5.33;4.80;;;;;;;;;;5052989;28;20189;-46
2022/09/07 00:52:06;;;;;;;7.13;4.90;;;;;;;;;;5052437;28;20206;-46
2022/09/07 00:54:33;;;;;;;6.30;5.10;;;;;;;;;;5052342;28;20205;-47
2022/09/07 00:56:59;;;;;;;6.23;5.03;;;;;;;;;;5052581;28;20565;-46
2022/09/07 00:59:27;;;;;;;5.80;5.20;;;;;;;;;;5050424;28;20684;-46
2022/09/07 01:01:54;;;;;;;7.07;5.00;;;;;;;;;;5052527;28;20221;-47
2022/09/07 01:04:21;;;;;;;5.97;4.90;;;;;;;;;;5052585;28;20233;-47
2022/09/07 01:06:48;;;;;;;10.23;5.50;;;;;;;;;;5052708;28;20223;-46
2022/09/07 01:09:15;;;;;;;6.37;5.20;;;;;;;;;;5052259;28;20672;-47
2022/09/07 01:11:49;;;;;;;10.47;5.50;;;;;;;;;;5050693;28;20197;-47
2022/09/07 01:14:16;;;;;;;5.73;5.10;;;;;;;;;;5051759;28;20214;-46
2022/09/07 01:16:52;;;;;;;6.20;5.43;;;;;;;;;;5052010;28;20203;-47
2022/09/07 01:19:37;;;;;;;6.80;4.80;;;;;;;;;;5052216;28;20205;-47
2022/09/07 01:22:14;;;;;;;5.77;5.17;;;;;;;;;;5052307;28;20697;-47
2022/09/07 01:24:49;;;;;;;7.60;5.50;;;;;;;;;;5051841;28;20686;-46
2022/09/07 01:27:27;;;;;;;6.07;5.47;;;;;;;;;;5051946;28;20599;-47
2022/09/07 01:29:58;;;;;;;6.30;5.70;;;;;;;;;;5052242;28;20857;-46
2022/09/07 01:32:29;;;;;;;5.73;5.23;;;;;;;;;;5052300;28;20206;-47
2022/09/07 01:34:55;;;;;;;6.07;5.03;;;;;;;;;;5052191;28;20280;-47
2022/09/07 01:37:25;;;;;;;5.90;5.40;;;;;;;;;;5052081;28;20636;-46
2022/09/07 01:39:52;;;;;;;7.53;5.77;;;;;;;;;;5051897;28;20213;-46
2022/09/07 01:42:20;;;;;;;6.53;5.47;;;;;;;;;;5051827;28;20259;-46
2022/09/07 01:44:50;;;;;;;7.10;5.27;;;;;;;;;;5051838;28;20238;-46
2022/09/07 01:47:18;;;;;;;6.50;5.43;;;;;;;;;;5051895;28;20202;-47
2022/09/07 01:49:47;;;;;;;7.80;5.83;;;;;;;;;;5051896;28;20208;-47
2022/09/07 01:52:16;;;;;;;7.13;6.10;;;;;;;;;;5051892;28;20201;-47
2022/09/07 01:54:46;;;;;;;6.73;5.50;;;;;;;;;;5051648;28;20206;-47
2022/09/07 01:57:14;;;;;;;7.40;5.70;;;;;;;;;;5051451;28;20267;-47
2022/09/07 01:59:42;;;;;;;6.13;5.13;;;;;;;;;;5051616;28;20245;-46
2022/09/07 02:02:13;;;;;;;6.20;5.60;;;;;;;;;;5051438;28;20219;-46
2022/09/07 02:04:42;;;;;;;7.07;5.73;;;;;;;;;;5051403;28;20211;-46
2022/09/07 02:07:11;;;;;;;5.80;5.30;;;;;;;;;;5051400;28;20214;-46
2022/09/07 02:09:41;;;;;;;6.20;5.70;;;;;;;;;;5050520;28;20644;-47
2022/09/07 02:12:10;;;;;;;6.40;5.73;;;;;;;;;;5050779;28;20638;-46
2022/09/07 02:14:37;;;;;;;6.97;5.57;;;;;;;;;;5049817;28;20201;-47
2022/09/07 02:17:06;;;;;;;6.03;5.43;;;;;;;;;;5051239;28;20210;-47
2022/09/07 02:19:36;;;;;;;6.17;5.30;;;;;;;;;;5051512;28;20206;-47
2022/09/07 02:22:04;;;;;;;5.80;5.30;;;;;;;;;;5050946;28;20221;-47
2022/09/07 02:24:32;;;;;;;6.23;5.63;;;;;;;;;;5051269;28;20204;-46
2022/09/07 02:27:01;;;;;;;6.97;6.33;;;;;;;;;;5050883;28;20203;-46
2022/09/07 02:29:27;;;;;;;6.20;5.70;;;;;;;;;;5050611;28;20273;-46
2022/09/07 02:31:53;;;;;;;6.30;5.70;;;;;;;;;;5049181;28;20320;-47
2022/09/07 02:34:19;;;;;;;8.20;5.90;;;;;;;;;;5050831;28;20196;-47
2022/09/07 02:36:47;;;;;;;5.90;5.40;;;;;;;;;;5050373;28;20202;-47
2022/09/07 02:39:13;;;;;;;7.23;6.13;;;;;;;;;;5050982;28;20212;-46
2022/09/07 02:41:41;;;;;;;6.93;6.13;;;;;;;;;;5050787;28;20194;-46
2022/09/07 02:44:08;;;;;;;7.13;6.43;;;;;;;;;;5050218;28;20230;-47
2022/09/07 02:46:37;;;;;;;6.73;6.20;;;;;;;;;;5050051;28;20293;-46
2022/09/07 02:49:07;;;;;;;8.37;6.37;;;;;;;;;;5050480;28;20201;-46
2022/09/07 02:51:38;;;;;;;7.10;6.40;;;;;;;;;;5050636;28;20569;-46
2022/09/07 02:54:12;;;;;;;7.17;6.47;;;;;;;;;;5050492;28;20201;-46
2022/09/07 02:56:47;;;;;;;8.10;6.80;;;;;;;;;;5050676;28;20201;-46
2022/09/07 02:59:17;;;;;;;9.03;7.60;;;;;;;;;;5048806;28;20296;-47
2022/09/07 03:01:46;;;;;;;7.07;6.47;;;;;;;;;;5049106;28;20200;-46
2022/09/07 03:04:14;;;;;;;8.17;7.43;;;;;;;;;;5050631;28;20246;-46
2022/09/07 03:06:42;;;;;;;6.93;6.33;;;;;;;;;;5050317;28;20686;-46
2022/09/07 03:09:12;;;;;;;10.00;6.63;;;;;;;;;;5050423;28;20196;-46
2022/09/07 03:11:38;;;;;;;8.33;6.07;;;;;;;;;;5050253;28;20214;-46
2022/09/07 03:14:14;;;;;;;6.83;6.23;;;;;;;;;;5050472;28;20195;-46
2022/09/07 03:16:40;;;;;;;6.50;5.90;;;;;;;;;;5050085;28;20224;-46
2022/09/07 03:19:06;;;;;;;6.40;5.80;;;;;;;;;;5050063;28;20205;-46
2022/09/07 03:21:32;;;;;;;6.93;6.27;;;;;;;;;;5050025;28;20608;-46
2022/09/07 03:23:58;;;;;;;6.50;5.67;;;;;;;;;;5049324;28;20224;-47
2022/09/07 03:26:26;;;;;;;6.53;5.93;;;;;;;;;;5049280;28;20256;-46
2022/09/07 03:28:52;;;;;;;6.67;5.97;;;;;;;;;;5050298;28;20509;-46
2022/09/07 03:31:18;;;;;;;6.50;5.90;;;;;;;;;;5050309;28;20607;-46
2022/09/07 03:33:44;;;;;;;7.27;6.57;;;;;;;;;;5050172;28;20269;-46
2022/09/07 03:36:10;;;;;;;6.17;5.57;;;;;;;;;;5050434;28;20201;-46
2022/09/07 03:38:36;;;;;;;6.40;5.80;;;;;;;;;;5050217;28;20210;-46
2022/09/07 03:41:03;;;;;;;6.63;6.03;;;;;;;;;;5050078;28;20277;-46
2022/09/07 03:43:30;;;;;;;8.53;5.67;;;;;;;;;;5049464;28;20274;-48
2022/09/07 03:45:57;;;;;;;6.40;5.90;;;;;;;;;;5049947;28;20611;-47
2022/09/07 03:48:23;;;;;;;7.07;6.40;;;;;;;;;;5050147;28;20658;-46
2022/09/07 03:50:54;;;;;;;9.00;7.80;;;;;;;;;;5048684;28;20409;-46
2022/09/07 03:53:20;;;;;;;8.50;7.60;;;;;;;;;;5048960;28;20725;-46
2022/09/07 03:55:54;;;;;;;6.90;6.30;;;;;;;;;;5050075;28;20206;-46
2022/09/07 03:58:20;;;;;;;7.50;6.43;;;;;;;;;;5049771;28;20223;-46
2022/09/07 04:00:48;;;;;;;7.03;5.80;;;;;;;;;;5051053;28;20243;-46
2022/09/07 04:03:13;;;;;;;7.20;6.23;;;;;;;;;;5052025;28;20230;-47
2022/09/07 04:05:39;;;;;;;6.83;6.23;;;;;;;;;;5053412;28;20204;-47
2022/09/07 04:08:05;;;;;;;7.23;6.60;;;;;;;;;;5051727;28;20667;-46
2022/09/07 04:10:31;;;;;;;7.10;6.50;;;;;;;;;;5053726;28;20285;-46
2022/09/07 04:12:57;;;;;;;9.07;5.97;;;;;;;;;;5053447;28;20216;-47
2022/09/07 04:15:23;;;;;;;5.87;5.37;;;;;;;;;;5051994;28;20692;-47
2022/09/07 04:17:51;;;;;;;8.43;6.53;;;;;;;;;;5053715;28;20241;-47
2022/09/07 04:20:17;;;;;;;10.70;8.40;;;;;;;;;;5053539;28;20218;-47
2022/09/07 04:22:43;;;;;;;10.63;8.37;;;;;;;;;;5053420;28;20220;-47
2022/09/07 04:25:09;;;;;;;9.67;7.67;;;;;;;;;;5051921;28;20744;-47
2022/09/07 04:27:35;;;;;;;8.50;7.67;;;;;;;;;;5053541;28;20261;-47
2022/09/07 04:30:00;;;;;;;9.87;8.83;;;;;;;;;;5053457;28;20281;-47
2022/09/07 04:32:26;;;;;;;10.23;8.40;;;;;;;;;;5052701;28;20608;-46
2022/09/07 04:34:54;;;;;;;10.97;7.57;;;;;;;;;;5052295;28;20213;-47
2022/09/07 04:37:20;;;;;;;10.88;8.05;;;;;;;;;;5051257;28;20500;-47
2022/09/07 04:39:46;;;;;;;8.97;6.97;;;;;;;;;;5052948;28;20420;-47
2022/09/07 04:42:12;;;;;;;9.53;6.93;;;;;;;;;;5052849;28;20208;-46
2022/09/07 04:44:38;;;;;;;8.37;7.50;;;;;;;;;;5051631;28;20647;-48
2022/09/07 04:47:04;;;;;;;8.40;6.90;;;;;;;;;;5052947;28;20865;-47
2022/09/07 04:49:30;;;;;;;7.97;7.17;;;;;;;;;;5052847;28;20243;-47
2022/09/07 04:51:57;;;;;;;8.23;6.83;;;;;;;;;;5052757;28;20227;-46
2022/09/07 04:54:23;;;;;;;7.70;7.00;;;;;;;;;;5052871;28;20198;-48
2022/09/07 04:56:49;;;;;;;7.33;6.63;;;;;;;;;;5053125;28;20200;-54
2022/09/07 04:59:15;;;;;;;7.67;6.90;;;;;;;;;;5052608;28;20228;-46
2022/09/07 05:01:41;;;;;;;7.70;7.07;;;;;;;;;;5051104;28;20402;-47
2022/09/07 05:04:07;;;;;;;7.97;7.22;;;;;;;;;;5051283;28;20772;-47
2022/09/07 05:06:34;;;;;;;8.63;7.73;;;;;;;;;;5052564;28;20204;-47
2022/09/07 05:09:01;;;;;;;8.67;7.00;;;;;;;;;;5052501;28;20248;-47
2022/09/07 05:11:28;;;;;;;10.70;7.10;;;;;;;;;;5051798;28;20208;-48
2022/09/07 05:13:55;;;;;;;7.37;6.67;;;;;;;;;;5052259;28;20652;-46
2022/09/07 05:16:22;;;;;;;8.17;7.37;;;;;;;;;;5052048;28;20198;-48
2022/09/07 05:18:49;;;;;;;8.20;7.60;;;;;;;;;;5051908;28;20363;-54
2022/09/07 05:21:16;;;;;;;10.73;8.17;;;;;;;;;;5051790;28;20543;-46
2022/09/07 05:23:42;;;;;;;9.23;8.33;;;;;;;;;;5052110;28;20252;-45
2022/09/07 05:26:11;;;;;;;7.57;6.73;;;;;;;;;;5051930;28;20244;-47
2022/09/07 05:28:37;;;;;;;8.50;7.60;;;;;;;;;;5051988;28;20383;-46
2022/09/07 05:31:04;;;;;;;10.50;7.87;;;;;;;;;;5051726;28;20622;-47
2022/09/07 05:33:30;;;;;;;8.00;7.20;;;;;;;;;;5052108;28;20193;-45
2022/09/07 05:35:57;;;;;;;9.20;8.07;;;;;;;;;;5051844;28;20224;-47
2022/09/07 05:38:24;;;;;;;8.40;7.60;;;;;;;;;;5051772;28;20276;-46
2022/09/07 05:40:50;;;;;;;8.90;8.00;;;;;;;;;;5052025;28;20665;-45
2022/09/07 05:43:17;;;;;;;9.07;8.10;;;;;;;;;;5051952;28;20231;-45
2022/09/07 05:45:43;;;;;;;8.80;8.10;;;;;;;;;;5051314;28;20213;-45
2022/09/07 05:48:09;;;;;;;8.97;8.13;;;;;;;;;;5049371;28;20284;-46
2022/09/07 05:50:35;;;;;;;8.83;8.03;;;;;;;;;;5051615;28;20289;-46
2022/09/07 05:53:01;;;;;;;8.67;7.77;;;;;;;;;;5052024;28;20195;-46
2022/09/07 05:55:27;;;;;;;9.27;8.47;;;;;;;;;;5051721;28;20667;-46
2022/09/07 05:57:53;;;;;;;9.00;8.20;;;;;;;;;;5050041;28;20192;-47
2022/09/07 06:00:21;;;;;;;9.80;8.80;;;;;;;;;;5051633;28;20243;-47
2022/09/07 06:02:47;;;;;;;9.83;8.87;;;;;;;;;;5051346;28;20681;-47
2022/09/07 06:05:13;;;;;;;9.20;8.30;;;;;;;;;;5051640;28;20208;-46
2022/09/07 06:07:39;;;;;;;8.93;8.13;;;;;;;;;;5049057;28;20219;-46
2022/09/07 06:10:05;;;;;;;9.87;8.93;;;;;;;;;;5048562;28;20291;-47
2022/09/07 06:12:31;;;;;;;9.50;8.60;;;;;;;;;;5050738;28;20213;-46
2022/09/07 06:14:58;;;;;;;10.13;9.13;;;;;;;;;;5050815;28;20204;-46
2022/09/07 06:17:25;;;;;;;10.00;9.07;;;;;;;;;;5051752;28;20233;-46
2022/09/07 06:19:51;;;;;;;9.37;8.67;;;;;;;;;;5048930;28;20732;-46
2022/09/07 06:22:17;;;;;;;9.80;8.90;;;;;;;;;;5049542;28;20200;-46
2022/09/07 06:24:43;;;;;;;9.27;8.37;;;;;;;;;;5050554;28;20204;-46
2022/09/07 06:27:09;;;;;;;9.43;8.57;;;;;;;;;;5049530;28;20201;-46
2022/09/07 06:29:35;;;;;;;9.73;8.90;;;;;;;;;;5051120;28;20252;-46
2022/09/07 06:32:02;;;;;;;9.50;8.70;;;;;;;;;;5050695;28;20193;-46
2022/09/07 06:34:29;;;;;;;8.90;8.10;;;;;;;;;;5051047;28;20660;-46
2022/09/07 06:36:55;;;;;;;9.63;8.83;;;;;;;;;;5050869;28;20212;-46
2022/09/07 06:39:21;;;;;;;9.83;7.77;;;;;;;;;;5050689;28;20614;-46
2022/09/07 06:41:47;;;;;;;9.70;8.70;;;;;;;;;;5050436;28;20247;-46
2022/09/07 06:44:13;;;;;;;8.27;7.60;;;;;;;;;;5050679;28;20233;-46
2022/09/07 06:46:39;;;;;;;7.93;7.17;;;;;;;;;;5050324;28;20295;-46
2022/09/07 06:49:05;;;;;;;9.97;8.03;;;;;;;;;;5050288;28;20293;-46
2022/09/07 06:51:33;;;;;;;9.43;8.30;;;;;;;;;;5050611;28;20252;-46
2022/09/07 06:54:04;;;;;;;9.53;8.63;;;;;;;;;;5050292;28;20206;-46
2022/09/07 06:56:30;;;;;;;8.70;7.77;;;;;;;;;;5048341;28;20701;-46
2022/09/07 06:58:56;;;;;;;7.07;6.37;;;;;;;;;;5050067;28;20571;-46
2022/09/07 07:01:23;;;;;;;9.53;8.60;;;;;;;;;;5050253;28;20241;-46
2022/09/07 07:03:49;;;;;;;12.83;9.67;;;;;;;;;;5049460;28;20258;-46
2022/09/07 07:06:15;;;;;;;8.67;7.93;;;;;;;;;;5050510;28;20204;-46
2022/09/07 07:08:43;;;;;;;9.40;8.50;;;;;;;;;;5050869;28;20222;-46
2022/09/07 07:11:10;;;;;;;9.40;7.60;;;;;;;;;;5048119;28;20246;-46
2022/09/07 07:13:36;;;;;;;10.77;9.23;;;;;;;;;;5050589;28;20196;-46
2022/09/07 07:16:03;;;;;;;10.67;9.70;;;;;;;;;;5049894;28;20250;-46
2022/09/07 07:18:29;;;;;;;12.13;9.33;;;;;;;;;;5050285;28;20605;-46
2022/09/07 07:20:55;;;;;;;10.47;9.47;;;;;;;;;;5048744;28;20653;-47
2022/09/07 07:23:21;;;;;;;9.83;8.80;;;;;;;;;;5050357;28;20238;-47
2022/09/07 07:25:49;;;;;;;10.70;9.23;;;;;;;;;;5050181;28;20226;-46
2022/09/07 07:28:15;;;;;;;10.30;9.40;;;;;;;;;;5050131;28;20213;-47
2022/09/07 07:30:41;;;;;;;10.97;9.87;;;;;;;;;;5049184;28;20568;-46
2022/09/07 07:33:08;;;;;;;8.40;7.60;;;;;;;;;;5051204;28;20254;-46
2022/09/07 07:35:34;;;;;;;10.80;9.67;;;;;;;;;;5054277;28;20203;-46
2022/09/07 07:38:01;;;;;;;9.27;8.47;;;;;;;;;;5054080;28;20203;-46
2022/09/07 07:40:27;;;;;;;9.10;8.20;;;;;;;;;;5054312;28;20261;-46
2022/09/07 07:42:54;;;;;;;9.30;8.37;;;;;;;;;;5054060;28;20598;-47
2022/09/07 07:45:21;;;;;;;10.87;8.83;;;;;;;;;;5054164;28;20200;-46
2022/09/07 07:47:49;;;;;;;10.13;9.23;;;;;;;;;;5054333;28;20573;-48
2022/09/07 07:50:15;;;;;;;11.10;9.10;;;;;;;;;;5054083;28;20200;-47
2022/09/07 07:52:41;;;;;;;10.57;8.87;;;;;;;;;;5053481;28;20576;-46
2022/09/07 07:55:07;;;;;;;7.80;7.00;;;;;;;;;;5053038;28;20279;-46
2022/09/07 07:57:33;;;;;;;10.40;9.50;;;;;;;;;;5054075;28;20277;-46
2022/09/07 08:00:01;;;;;;;10.40;9.40;;;;;;;;;;5053560;28;20631;-46
2022/09/07 08:02:27;;;;;;;10.07;9.17;;;;;;;;;;5053690;28;20207;-47
2022/09/07 08:04:52;;;;;;;9.93;9.13;;;;;;;;;;5053741;28;20439;-46
2022/09/07 08:07:19;;;;;;;10.23;9.30;;;;;;;;;;5053750;28;20311;-46
2022/09/07 08:09:46;;;;;;;10.40;9.50;;;;;;;;;;5053590;28;20207;-46
2022/09/07 08:12:13;;;;;;;10.97;10.03;;;;;;;;;;5053553;28;20286;-46
2022/09/07 08:14:42;;;;;;;10.60;9.70;;;;;;;;;;5053469;28;20694;-46
2022/09/07 08:17:10;;;;;;;10.23;9.33;;;;;;;;;;5052866;28;20845;-47
2022/09/07 08:19:36;;;;;;;10.50;9.60;;;;;;;;;;5051083;28;20724;-48
2022/09/07 08:22:02;;;;;;;10.30;9.47;;;;;;;;;;5053020;28;20199;-48
2022/09/07 08:24:28;;;;;;;10.37;9.37;;;;;;;;;;5051098;28;20281;-46
2022/09/07 08:26:54;;;;;;;9.37;8.23;;;;;;;;;;5051002;28;20204;-47
2022/09/07 08:29:20;;;;;;;11.63;8.03;;;;;;;;;;5053058;28;20226;-48
2022/09/07 08:31:47;;;;;;;8.73;7.93;;;;;;;;;;5051232;28;20196;-47
2022/09/07 08:34:14;;;;;;;9.40;8.50;;;;;;;;;;5053215;28;20238;-46
2022/09/07 08:36:40;;;;;;;9.60;7.90;;;;;;;;;;5053199;28;20447;-47
2022/09/07 08:39:06;;;;;;;8.53;6.73;;;;;;;;;;5053066;28;20722;-47
2022/09/07 08:41:43;;;;;;;6.80;6.20;;;;;;;;;;5053505;28;20262;-47
2022/09/07 08:44:12;;;;;;;8.27;7.50;;;;;;;;;;5052442;28;20757;-49
2022/09/07 08:46:40;;;;;;;7.70;7.10;;;;;;;;;;5052758;28;20200;-46
2022/09/07 08:49:11;;;;;;;8.20;7.40;;;;;;;;;;5052425;28;20618;-47
2022/09/07 08:51:41;;;;;;;8.27;6.40;;;;;;;;;;5052783;28;20254;-47
2022/09/07 08:54:10;;;;;;;6.27;5.67;;;;;;;;;;5049896;28;20200;-46
2022/09/07 08:56:37;;;;;;;7.17;6.57;;;;;;;;;;5052845;28;20192;-48
2022/09/07 08:59:08;;;;;;;8.60;6.87;;;;;;;;;;5052570;28;20240;-47
2022/09/07 09:01:36;;;;;;;6.90;5.83;;;;;;;;;;5052395;28;20231;-47
2022/09/07 09:04:03;;;;;;;6.17;5.67;;;;;;;;;;5051654;28;20242;-47
2022/09/07 09:06:32;;;;;;;5.70;5.10;;;;;;;;;;5052244;28;20349;-47
2022/09/07 09:09:05;;;;;;;5.47;4.97;;;;;;;;;;5052573;28;20295;-47
2022/09/07 09:11:37;;;;;;;6.37;5.77;;;;;;;;;;5052395;28;20212;-47
2022/09/07 09:14:05;;;;;;;7.73;5.10;;;;;;;;;;5052500;28;20283;-47
2022/09/07 09:16:33;;;;;;;5.80;5.23;;;;;;;;;;5051961;28;20201;-47
2022/09/07 09:19:05;;;;;;;5.27;4.77;;;;;;;;;;5052282;28;20295;-45
2022/09/07 09:21:31;;;;;;;6.53;5.93;;;;;;;;;;5051365;28;20283;-46
2022/09/07 09:23:59;;;;;;;6.17;5.33;;;;;;;;;;5052197;28;20230;-45
2022/09/07 09:26:27;;;;;;;4.80;4.13;;;;;;;;;;5051250;28;20594;-46
2022/09/07 09:28:54;;;;;;;5.97;5.37;;;;;;;;;;5052362;28;20305;-46
2022/09/07 09:31:21;;;;;;;5.40;4.80;;;;;;;;;;5052503;28;20270;-45
2022/09/07 09:34:04;;;;;;;5.83;4.00;;;;;;;;;;5050531;28;20626;-48
2022/09/07 09:36:33;;;;;;;3.97;3.67;;;;;;;;;;5051709;28;20276;-46
2022/09/07 09:38:59;;;;;;;3.63;3.33;;;;;;;;;;5051961;28;20758;-48
2022/09/07 09:41:34;;;;;;;4.43;3.40;;;;;;;;;;5052410;28;20290;-47
2022/09/07 09:44:02;;;;;;;6.10;3.70;;;;;;;;;;5052222;28;20255;-48
2022/09/07 09:46:29;;;;;;;5.53;4.60;;;;;;;;;;5052288;28;20702;-48
2022/09/07 09:48:56;;;;;;;4.27;3.87;;;;;;;;;;5052118;28;20239;-48
2022/09/07 09:51:22;;;;;;;3.50;3.00;;;;;;;;;;5052032;28;20671;-48
2022/09/07 09:53:56;;;;;;;4.40;2.80;;;;;;;;;;5052287;28;20203;-48
2022/09/07 09:56:23;;;;;;;3.93;3.00;;;;;;;;;;5052107;28;20234;-48
2022/09/07 09:58:50;;;;;;;3.40;3.10;;;;;;;;;;5051626;28;20720;-46
2022/09/07 10:01:23;;;;;;;3.07;2.70;;;;;;;;;;5051988;28;20221;-46
2022/09/07 10:03:49;;;;;;;3.43;2.77;;;;;;;;;;5051623;28;20231;-49
2022/09/07 10:06:16;;;;;;;4.90;2.53;;;;;;;;;;5051724;28;20655;-47
2022/09/07 10:08:51;;;;;;;3.10;2.80;;;;;;;;;;5051677;28;20227;-48
2022/09/07 10:11:17;;;;;;;3.87;3.27;;;;;;;;;;5051927;28;20199;-47
2022/09/07 10:13:45;;;;;;;3.43;2.70;;;;;;;;;;5051801;28;20658;-47
2022/09/07 10:16:13;;;;;;;3.50;3.10;;;;;;;;;;5048808;28;20206;-46
2022/09/07 10:18:40;;;;;;;6.20;3.07;;;;;;;;;;5051156;28;20201;-47
2022/09/07 10:21:11;;;;;;;3.00;2.70;;;;;;;;;;5050575;28;20286;-46
2022/09/07 10:23:37;;;;;;;3.00;2.80;;;;;;;;;;5050437;28;20669;-46
2022/09/07 10:26:18;;;;;;;2.60;2.40;;;;;;;;;;5051016;28;20199;-46
2022/09/07 10:28:44;;;;;;;3.60;2.67;;;;;;;;;;5050987;28;20249;-47
2022/09/07 10:31:15;;;;;;;2.93;2.30;;;;;;;;;;5049181;28;20264;-46
2022/09/07 10:33:47;;;;;;;2.83;2.53;;;;;;;;;;5050962;28;20217;-48
2022/09/07 10:36:15;;;;;;;3.20;2.50;;;;;;;;;;5050993;28;20263;-48
2022/09/07 10:38:44;;;;;;;3.43;2.80;;;;;;;;;;5050600;28;20536;-47
2022/09/07 10:41:10;;;;;;;3.37;2.40;;;;;;;;;;5051243;28;20255;-48
2022/09/07 10:43:42;;;;;;;4.60;2.50;;;;;;;;;;5050571;28;20671;-48
2022/09/07 10:46:14;;;;;;;3.70;2.40;;;;;;;;;;5050649;28;20209;-48
2022/09/07 10:48:45;;;;;;;2.60;2.40;;;;;;;;;;5050502;28;20566;-49
2022/09/07 10:51:16;;;;;;;2.40;2.20;;;;;;;;;;5050668;28;20208;-48
2022/09/07 10:53:46;;;;;;;3.37;2.10;;;;;;;;;;5050771;28;20199;-48
2022/09/07 10:56:14;;;;;;;2.80;1.90;;;;;;;;;;5050553;28;20201;-48
2022/09/07 10:58:47;;;;;;;2.30;2.10;;;;;;;;;;5050427;28;20203;-49
2022/09/07 11:01:18;;;;;;;2.23;2.03;;;;;;;;;;5050666;28;20224;-48
2022/09/07 11:04:02;;;;;;;1.90;1.80;;;;;;;;;;5050446;28;20227;-49
2022/09/07 11:06:31;;;;;;;2.10;1.90;;;;;;;;;;5050439;28;20215;-48
2022/09/07 11:09:06;;;;;;;2.83;1.90;;;;;;;;;;5048437;28;20220;-49
2022/09/07 11:11:33;;;;;;;3.00;1.90;;;;;;;;;;5047958;28;20256;-48
2022/09/07 11:14:03;;;;;;;3.97;1.60;;;;;;;;;;5050894;28;20701;-49
2022/09/07 11:16:32;;;;;;;1.83;1.73;;;;;;;;;;5050593;28;20223;-48
2022/09/07 11:18:59;;;;;;;2.07;1.80;;;;;;;;;;5050509;28;20206;-48
2022/09/07 11:21:27;;;;;;;2.60;1.50;;;;;;;;;;5050225;28;20254;-49
2022/09/07 11:23:57;;;;;;;2.87;1.57;;;;;;;;;;5050203;28;20311;-49
2022/09/07 11:26:26;;;;;;;2.00;1.53;;;;;;;;;;5050787;28;20205;-49
2022/09/07 11:28:54;;;;;;;1.40;1.27;;;;;;;;;;5050359;28;20299;-49
2022/09/07 11:31:22;;;;;;;1.90;1.50;;;;;;;;;;5049156;28;20202;-48
2022/09/07 11:33:53;;;;;;;1.80;1.70;;;;;;;;;;5050471;28;20240;-49
2022/09/07 11:36:20;;;;;;;3.00;1.57;;;;;;;;;;5050119;28;20200;-48
2022/09/07 11:38:50;;;;;;;1.90;1.40;;;;;;;;;;5050247;28;20213;-48
2022/09/07 11:41:21;;;;;;;1.77;1.60;;;;;;;;;;5049899;28;20202;-47
2022/09/07 11:43:50;;;;;;;2.00;1.60;;;;;;;;;;5050294;28;20284;-48
2022/09/07 11:46:19;;;;;;;1.67;1.50;;;;;;;;;;5048748;28;20656;-47
2022/09/07 11:48:46;;;;;;;2.80;1.50;;;;;;;;;;5048581;28;20194;-46
2022/09/07 11:51:15;;;;;;;2.00;1.40;;;;;;;;;;5050090;28;20294;-47
2022/09/07 11:53:43;;;;;;;6.30;1.70;;;;;;;;;;5048074;28;20206;-47
2022/09/07 11:56:12;;;;;;;1.80;1.60;;;;;;;;;;5047849;28;20193;-47
2022/09/07 11:58:48;;;;;;;1.87;1.70;;;;;;;;;;5050205;28;20622;-46
2022/09/07 12:01:20;;;;;;;4.23;1.73;;;;;;;;;;5049991;28;20287;-47
2022/09/07 12:03:55;;;;;;;4.07;1.60;;;;;;;;;;5049745;28;20221;-47
2022/09/07 12:06:39;;;;;;;1.60;1.50;;;;;;;;;;5050276;28;20659;-47
2022/09/07 12:09:17;;;;;;;1.80;1.67;;;;;;;;;;5048163;28;20235;-47
2022/09/07 12:11:59;;;;;;;2.00;1.50;;;;;;;;;;5049456;28;20191;-48
2022/09/07 12:14:31;;;;;;;2.53;1.90;;;;;;;;;;5051548;28;20205;-47
2022/09/07 12:17:07;;;;;;;1.83;1.63;;;;;;;;;;5050893;28;20230;-48
2022/09/07 12:19:33;;;;;;;2.30;1.53;;;;;;;;;;5049688;28;20238;-48
2022/09/07 12:22:00;;;;;;;2.30;1.50;;;;;;;;;;5053103;28;20278;-48
2022/09/07 12:24:37;;;;;;;2.37;1.50;;;;;;;;;;5053036;28;20280;-47
2022/09/07 12:27:04;;;;;;;2.20;1.50;;;;;;;;;;5052892;28;20600;-48
2022/09/07 12:29:32;;;;;;;1.97;1.70;;;;;;;;;;5051299;28;20211;-47
2022/09/07 12:31:58;;;;;;;1.57;1.47;;;;;;;;;;5053858;28;20211;-48
2022/09/07 12:34:51;;;;;;;3.73;1.40;;;;;;;;;;5052889;28;20192;-48
2022/09/07 12:37:35;;;;;;;1.50;1.40;;;;;;;;;;5027791;28;20298;-48
2022/09/07 12:40:19;;;;;;;2.30;1.50;;;;;;;;;;5052024;28;20204;-48
2022/09/07 12:42:45;;;;;;;2.00;1.40;;;;;;;;;;5053084;28;20197;-48
2022/09/07 12:45:47;;;;;;;2.47;1.20;;;;;;;;;;5052754;28;20935;-48
2022/09/07 12:48:24;;;;;;;1.87;1.50;;;;;;;;;;5052945;28;20213;-48
2022/09/07 12:50:55;;;;;;;1.17;1.00;;;;;;;;;;5053195;28;20228;-48
2022/09/07 12:53:28;;;;;;;1.53;1.13;;;;;;;;;;5052353;28;20197;-48
2022/09/07 12:56:05;;;;;;;1.77;1.30;;;;;;;;;;5053201;28;20342;-48
2022/09/07 12:58:36;;;;;;;2.47;1.30;;;;;;;;;;5052958;28;20304;-48
2022/09/07 13:01:12;;;;;;;1.40;1.30;;;;;;;;;;5052290;28;20310;-48
2022/09/07 13:03:45;;;;;;;6.00;1.60;;;;;;;;;;5050620;28;20239;-50
2022/09/07 13:06:15;;;;;;;2.63;1.40;;;;;;;;;;5052903;28;20228;-48
2022/09/07 13:08:59;;;;;;;1.57;1.33;;;;;;;;;;5052386;28;20223;-49
2022/09/07 13:11:29;;;;;;;1.30;1.20;;;;;;;;;;5052610;28;20193;-49
2022/09/07 13:13:57;;;;;;;2.80;1.37;;;;;;;;;;5052364;28;20202;-48
2022/09/07 13:16:29;;;;;;;1.50;1.40;;;;;;;;;;5052580;28;20208;-48
2022/09/07 13:18:55;;;;;;;2.07;1.60;;;;;;;;;;5052430;28;20579;-48
2022/09/07 13:21:33;;;;;;;2.83;1.27;;;;;;;;;;5052434;28;20660;-48
2022/09/07 13:24:17;;;;;;;1.50;1.30;;;;;;;;;;5052359;28;20289;-48
2022/09/07 13:26:57;;;;;;;1.57;1.40;;;;;;;;;;5052356;28;20279;-48
2022/09/07 13:29:29;;;;;;;1.23;1.13;;;;;;;;;;5052348;28;20203;-49
2022/09/07 13:32:02;;;;;;;1.40;1.30;;;;;;;;;;5052001;28;20201;-49
2022/09/07 13:34:48;;;;;;;1.43;1.27;;;;;;;;;;5052028;28;20956;-48
2022/09/07 13:37:15;;;;;;;1.97;1.30;;;;;;;;;;5050402;28;20235;-47
2022/09/07 13:39:44;;;;;;;2.80;1.43;;;;;;;;;;5052386;28;20200;-48
2022/09/07 13:42:14;;;;;;;3.73;1.40;;;;;;;;;;5052148;28;20206;-47
2022/09/07 13:44:41;;;;;;;2.77;1.50;;;;;;;;;;5052312;28;20239;-48
2022/09/07 13:47:12;;;;;;;2.43;1.13;;;;;;;;;;5052076;28;20196;-48
2022/09/07 13:49:56;;;;;;;2.60;1.27;;;;;;;;;;5052030;28;20207;-48
2022/09/07 13:52:25;;;;;;;1.83;1.50;;;;;;;;;;5051622;28;20207;-46
2022/09/07 13:55:00;;;;;;;2.60;1.40;;;;;;;;;;5050880;28;20195;-47
2022/09/07 13:57:27;;;;;;;2.50;1.40;;;;;;;;;;5052026;28;20290;-46
2022/09/07 13:59:55;;;;;;;2.90;1.37;;;;;;;;;;5051789;28;20259;-47
2022/09/07 14:02:23;;;;;;;2.53;1.50;;;;;;;;;;5050121;28;20203;-47
2022/09/07 14:04:50;;;;;;;3.43;1.70;;;;;;;;;;5051429;28;20723;-48
2022/09/07 14:07:19;;;;;;;2.20;1.60;;;;;;;;;;5049243;28;20218;-47
2022/09/07 14:09:47;;;;;;;4.60;1.50;;;;;;;;;;5050536;28;20258;-47
2022/09/07 14:12:14;;;;;;;1.83;1.53;;;;;;;;;;5049780;28;20202;-47
2022/09/07 14:14:40;;;;;;;1.70;1.60;;;;;;;;;;5051495;28;20212;-48
2022/09/07 14:17:07;;;;;;;3.23;1.47;;;;;;;;;;5051073;28;20294;-47
2022/09/07 14:19:38;;;;;;;3.33;1.67;;;;;;;;;;5051663;28;20672;-48
2022/09/07 14:22:05;;;;;;;3.70;1.80;;;;;;;;;;5051268;28;20737;-50
2022/09/07 14:24:32;;;;;;;3.87;1.40;;;;;;;;;;5049222;28;20277;-47
2022/09/07 14:26:59;;;;;;;3.20;1.50;;;;;;;;;;5051286;28;20234;-48
2022/09/07 14:29:28;;;;;;;3.03;1.60;;;;;;;;;;5050999;28;20229;-48
2022/09/07 14:31:55;;;;;;;1.97;1.57;;;;;;;;;;5056699;28;20217;-47
2022/09/07 14:34:22;;;;;;;2.60;1.40;;;;;;;;;;5065400;28;20572;-48
2022/09/07 14:36:50;;;;;;;2.60;1.40;;;;;;;;;;5070857;28;20211;-48
2022/09/07 14:39:17;;;;;;;2.30;1.33;;;;;;;;;;5070810;28;20289;-48
2022/09/07 14:41:43;;;;;;;2.83;1.60;;;;;;;;;;5069109;28;20273;-47
2022/09/07 14:44:24;;;;;;;2.60;1.50;;;;;;;;;;5069463;28;20265;-47
2022/09/07 14:46:50;;;;;;;2.67;2.00;;;;;;;;;;5066380;28;20201;-47
2022/09/07 14:49:18;;;;;;;1.83;1.23;;;;;;;;;;5069764;28;20198;-46